createdAt,value
2019-02-25T00:05:36.361Z,75.00
2019-02-25T00:15:41.044Z,58.37
2019-02-25T00:25:45.721Z,66.07
2019-02-25T00:35:50.420Z,71.47
2019-02-25T00:45:55.105Z,68.93
2019-02-25T00:55:59.801Z,70.97
2019-02-25T01:06:05.099Z,60.60
2019-02-25T01:16:09.777Z,64.30
2019-02-25T01:26:14.470Z,68.77
2019-02-25T01:36:19.165Z,75.55
2019-02-25T01:46:23.841Z,59.90
2019-02-25T01:56:28.534Z,56.30
2019-02-25T02:06:33.209Z,53.27
2019-02-25T02:16:37.882Z,58.60
2019-02-25T02:26:42.589Z,63.93
2019-02-25T02:36:47.265Z,65.10
2019-02-25T02:47:07.216Z,54.43
2019-02-25T02:57:11.889Z,51.05
2019-02-25T03:07:17.202Z,43.43
2019-02-25T03:17:21.894Z,46.42
2019-02-25T03:27:26.581Z,52.80
2019-02-25T03:37:31.357Z,39.70
2019-02-25T03:47:36.053Z,37.37
2019-02-25T03:57:40.726Z,59.03
2019-02-25T04:07:45.503Z,38.03
2019-02-25T04:17:50.310Z,35.87
2019-02-25T04:27:54.994Z,92.00
2019-02-25T04:37:59.691Z,92.07
2019-02-25T04:48:05.109Z,36.35
2019-02-25T04:58:09.886Z,35.55
2019-02-25T05:08:14.638Z,32.10
2019-02-25T05:18:19.362Z,28.32
2019-02-25T05:28:24.032Z,28.00
2019-02-25T05:38:28.936Z,28.90
2019-02-25T05:48:33.620Z,39.73
2019-02-25T05:58:38.529Z,38.83
2019-02-25T06:08:43.203Z,29.40
2019-02-25T06:18:47.889Z,58.37
2019-02-25T06:28:52.566Z,29.67
2019-02-25T06:38:57.252Z,30.57
2019-02-25T06:49:01.935Z,28.63
2019-02-25T06:59:06.657Z,32.97
2019-02-25T07:09:12.953Z,32.10
2019-02-25T07:19:19.175Z,30.93
2019-02-25T07:29:40.655Z,37.23
2019-02-25T07:39:47.179Z,31.33
2019-02-25T07:50:05.694Z,33.95
2019-02-25T08:00:13.136Z,31.95
2019-02-25T08:10:25.514Z,36.30
2019-02-25T08:20:31.993Z,35.83
2019-02-25T08:30:56.601Z,35.03
2019-02-25T08:41:21.594Z,44.13
2019-02-25T08:51:26.316Z,39.90
2019-02-25T09:01:31.030Z,39.23
2019-02-25T09:11:35.825Z,42.80
2019-02-25T09:21:40.703Z,47.33
2019-02-25T09:31:46.433Z,43.77
2019-02-25T09:41:51.109Z,49.23
2019-02-25T09:51:55.797Z,47.17
2019-02-25T10:02:00.679Z,43.67
2019-02-25T10:12:05.468Z,46.10
2019-02-25T10:22:10.357Z,47.77
2019-02-25T10:32:15.059Z,47.33
2019-02-25T10:42:19.738Z,48.75
2019-02-25T10:52:24.419Z,45.48
2019-02-25T11:02:29.109Z,45.23
2019-02-25T11:12:33.788Z,44.33
2019-02-25T11:22:39.906Z,39.75
2019-02-25T11:32:45.059Z,45.55
2019-02-25T11:42:49.817Z,39.88
2019-02-25T11:52:54.481Z,43.70
2019-02-25T12:02:59.161Z,41.75
2019-02-25T12:13:05.286Z,34.95
2019-02-25T12:23:10.702Z,35.30
2019-02-25T12:33:16.556Z,32.55
2019-02-25T12:43:21.833Z,33.42
2019-02-25T12:53:26.968Z,26.48
2019-02-25T13:03:32.699Z,30.08
2019-02-25T13:13:37.710Z,37.40
2019-02-25T13:23:44.042Z,34.95
2019-02-25T13:33:49.660Z,39.33
2019-02-25T13:43:58.932Z,44.93
2019-02-25T13:54:10.083Z,42.23
2019-02-25T14:04:15.247Z,36.00
2019-02-25T14:14:20.844Z,41.00
2019-02-25T14:24:26.131Z,46.63
2019-02-25T14:45:21.631Z,62.37
2019-02-25T14:55:25.709Z,49.90
2019-02-25T15:05:30.997Z,52.53
2019-02-25T15:15:37.479Z,56.73
2019-02-25T15:25:45.473Z,53.33
2019-02-25T15:35:51.799Z,54.23
2019-02-25T15:45:58.550Z,55.07
2019-02-25T15:56:05.451Z,50.73
2019-02-25T16:06:11.362Z,49.73
2019-02-25T16:16:17.238Z,51.30
2019-02-25T16:26:22.885Z,72.42
2019-02-25T16:36:30.534Z,67.63
2019-02-25T16:46:38.551Z,61.43
2019-02-25T16:56:42.793Z,60.78
2019-02-25T17:06:49.151Z,60.37
2019-02-25T17:16:57.032Z,59.33
2019-02-25T17:27:04.630Z,71.13
2019-02-25T17:37:10.771Z,141.37
2019-02-25T17:47:24.030Z,86.57
2019-02-25T17:57:25.685Z,71.97
2019-02-25T18:07:31.696Z,129.80
2019-02-25T18:17:38.903Z,160.43
2019-02-25T18:27:49.708Z,98.07
2019-02-25T18:37:53.066Z,83.20
2019-02-25T18:47:58.978Z,78.00
2019-02-25T18:58:07.898Z,75.70
2019-02-25T19:08:20.257Z,68.30
2019-02-25T19:18:26.424Z,84.97
2019-02-25T19:28:32.786Z,85.97
2019-02-25T19:38:41.928Z,96.17
2019-02-25T19:48:47.988Z,107.30
2019-02-25T19:58:53.345Z,97.13
2019-02-25T20:09:00.426Z,108.90
2019-02-25T20:19:08.797Z,122.73
2019-02-25T20:29:14.542Z,141.00
2019-02-25T20:39:20.533Z,122.28
2019-02-25T20:49:29.458Z,88.17
2019-02-25T20:59:34.865Z,73.83
2019-02-25T21:09:42.269Z,68.70
2019-02-25T21:19:47.617Z,59.30
2019-02-25T21:29:56.543Z,52.40
2019-02-25T21:40:02.909Z,45.90
2019-02-25T21:50:12.123Z,38.83
2019-02-25T22:00:24.539Z,43.33
2019-02-25T22:10:29.994Z,41.30
2019-02-25T22:20:37.657Z,45.13
2019-02-25T22:30:42.929Z,37.43
2019-02-25T22:40:50.980Z,37.70
2019-02-25T22:50:57.729Z,38.53
2019-02-25T23:01:05.478Z,34.20
2019-02-25T23:11:14.448Z,39.92
2019-02-25T23:21:23.751Z,48.83
2019-02-25T23:31:29.782Z,39.53
2019-02-25T23:41:36.252Z,41.80
2019-02-25T23:51:41.582Z,35.87
